Time;durP1;ratioP1;P1;durP2;ratioP2;P2;SDS_P1;SDS_P2;PMS_P1;PMS_P2;Temp;Humidity;BMP_temperature;BMP_pressure;BME280_temperature;BME280_humidity;BME280_pressure;Samples;Min_cycle;Max_cycle;Signal;HPM_P1;HPM_P2
2020/12/23 00:02:23;;;;;;;21.17;14.90;;;;;;;-140.79;100.00;63287.88;5082905;28;20032;-77
2020/12/23 00:04:49;;;;;;;21.00;14.70;;;;;;;-140.79;100.00;63287.88;5084179;28;20062;-76
2020/12/23 00:07:14;;;;;;;21.67;14.52;;;;;;;-140.79;100.00;63287.88;5083918;28;20020;-77
2020/12/23 00:09:44;;;;;;;20.95;14.63;;;;;;;-140.79;100.00;63287.88;5083451;28;20024;-80
2020/12/23 00:12:09;;;;;;;21.67;15.30;;;;;;;-140.79;100.00;63287.88;5071481;28;20024;-76
2020/12/23 00:14:35;;;;;;;22.40;15.52;;;;;;;-140.79;100.00;63287.88;5096083;28;20032;-76
2020/12/23 00:17:00;;;;;;;22.30;15.50;;;;;;;-140.79;100.00;63287.88;5104605;28;20039;-75
2020/12/23 00:19:26;;;;;;;22.27;16.05;;;;;;;-140.79;100.00;63287.88;5093526;28;20043;-75
2020/12/23 00:21:51;;;;;;;22.13;15.80;;;;;;;-140.79;100.00;63287.88;5085671;28;20081;-76
2020/12/23 00:24:17;;;;;;;24.35;15.95;;;;;;;-140.79;100.00;63287.88;5082508;28;20031;-77
2020/12/23 00:26:45;;;;;;;24.85;15.48;;;;;;;-140.79;100.00;63287.88;5064500;28;20036;-74
2020/12/23 00:29:11;;;;;;;23.40;15.77;;;;;;;-140.79;100.00;63287.88;5063432;28;20024;-75
2020/12/23 00:31:36;;;;;;;23.63;15.68;;;;;;;-140.79;100.00;63287.88;5063715;28;20059;-76
2020/12/23 00:34:02;;;;;;;22.80;15.95;;;;;;;-140.79;100.00;63287.88;5063070;28;20012;-76
2020/12/23 00:36:28;;;;;;;22.92;15.77;;;;;;;-140.79;100.00;63287.88;5061438;28;20032;-75
2020/12/23 00:38:53;;;;;;;22.67;16.13;;;;;;;-140.79;100.00;63287.88;5081452;28;20028;-78
2020/12/23 00:41:19;;;;;;;23.02;16.40;;;;;;;-140.79;100.00;63287.88;5080612;28;20036;-78
2020/12/23 00:43:44;;;;;;;23.15;16.65;;;;;;;-140.79;100.00;63287.88;5081122;28;20119;-77
2020/12/23 00:46:11;;;;;;;22.00;16.33;;;;;;;-140.79;100.00;63287.88;5046847;28;20424;-77
2020/12/23 00:48:37;;;;;;;23.50;16.60;;;;;;;-140.79;100.00;63287.88;5062847;28;20779;-77
2020/12/23 00:51:10;;;;;;;25.20;16.83;;;;;;;-140.79;100.00;63287.88;5062707;28;20028;-75
2020/12/23 00:53:35;;;;;;;23.05;16.42;;;;;;;-140.79;100.00;63287.88;5078985;28;20024;-84
2020/12/23 00:56:01;;;;;;;22.20;15.90;;;;;;;-140.79;100.00;63287.88;5060116;28;20036;-77
2020/12/23 00:58:26;;;;;;;23.95;16.88;;;;;;;-140.79;100.00;63287.88;5080378;28;20024;-76
2020/12/23 01:00:51;;;;;;;22.98;16.63;;;;;;;-140.79;100.00;63287.88;5080651;28;20040;-77
2020/12/23 01:03:17;;;;;;;26.48;17.77;;;;;;;-140.79;100.00;63287.88;5083554;28;20036;-76
2020/12/23 01:05:42;;;;;;;24.40;17.25;;;;;;;-140.79;100.00;63287.88;5084535;28;20032;-78
2020/12/23 01:08:08;;;;;;;25.70;17.15;;;;;;;-140.79;100.00;63287.88;5084554;28;20020;-75
2020/12/23 01:10:33;;;;;;;26.67;17.13;;;;;;;-140.79;100.00;63287.88;5084205;28;20461;-75
2020/12/23 01:12:58;;;;;;;25.50;16.80;;;;;;;-140.79;100.00;63287.88;5065633;28;20487;-74
2020/12/23 01:15:24;;;;;;;24.95;17.10;;;;;;;-140.79;100.00;63287.88;5082580;28;20032;-75
2020/12/23 01:17:49;;;;;;;23.23;16.33;;;;;;;-140.79;100.00;63287.88;5068247;28;20028;-77
2020/12/23 01:20:15;;;;;;;26.67;18.17;;;;;;;-140.79;100.00;63287.88;5065761;28;20035;-76
2020/12/23 01:22:40;;;;;;;27.27;17.98;;;;;;;-140.79;100.00;63287.88;5084386;28;20024;-76
2020/12/23 01:25:05;;;;;;;26.25;17.73;;;;;;;-140.79;100.00;63287.88;5083344;28;20082;-76
2020/12/23 01:27:31;;;;;;;26.23;17.40;;;;;;;-140.79;100.00;63287.88;5084192;28;20024;-77
2020/12/23 01:29:56;;;;;;;26.35;17.88;;;;;;;-140.79;100.00;63287.88;5065012;28;20036;-81
2020/12/23 01:32:22;;;;;;;24.30;17.02;;;;;;;-140.79;100.00;63287.88;5080475;28;20020;-77
2020/12/23 01:34:47;;;;;;;26.20;18.02;;;;;;;-140.79;100.00;63287.88;5083863;28;20039;-77
2020/12/23 01:37:12;;;;;;;25.77;17.33;;;;;;;-140.79;100.00;63287.88;5083889;28;20027;-76
2020/12/23 01:39:38;;;;;;;27.55;18.63;;;;;;;-140.79;100.00;63287.88;5048968;28;20101;-77
2020/12/23 01:42:03;;;;;;;28.48;18.42;;;;;;;-140.79;100.00;63287.88;5083653;28;20042;-77
2020/12/23 01:44:29;;;;;;;28.70;19.52;;;;;;;-140.79;100.00;63287.88;5083793;28;20024;-76
2020/12/23 01:46:54;;;;;;;25.23;18.27;;;;;;;-140.79;100.00;63287.88;5084128;28;20032;-77
2020/12/23 01:49:19;;;;;;;27.20;18.27;;;;;;;-140.79;100.00;63287.88;5082118;28;20400;-77
2020/12/23 01:51:45;;;;;;;25.60;17.58;;;;;;;-140.79;100.00;63287.88;5049088;28;20484;-76
2020/12/23 01:54:14;;;;;;;26.08;18.00;;;;;;;-140.79;100.00;63287.88;5083365;28;20420;-77
2020/12/23 01:56:43;;;;;;;26.88;17.83;;;;;;;-140.79;100.00;63287.88;5065840;28;22375;-77
2020/12/23 01:59:09;;;;;;;25.98;18.08;;;;;;;-140.79;100.00;63287.88;5081919;28;20028;-77
2020/12/23 02:01:36;;;;;;;25.38;17.90;;;;;;;-140.79;100.00;63287.88;5083025;28;20024;-78
2020/12/23 02:04:02;;;;;;;27.80;18.02;;;;;;;-140.79;100.00;63287.88;5083319;28;20095;-77
2020/12/23 02:06:27;;;;;;;26.48;18.25;;;;;;;-140.79;100.00;63287.88;5083116;28;20710;-76
2020/12/23 02:08:52;;;;;;;27.70;18.75;;;;;;;-140.79;100.00;63287.88;5083266;28;20020;-77
2020/12/23 02:11:19;;;;;;;28.63;19.23;;;;;;;-140.79;100.00;63287.88;5065190;28;20582;-81
2020/12/23 02:13:45;;;;;;;25.20;18.33;;;;;;;-140.79;100.00;63287.88;5081545;28;20499;-77
2020/12/23 02:16:11;;;;;;;29.58;18.88;;;;;;;-140.79;100.00;63287.88;5064543;28;20032;-76
2020/12/23 02:18:37;;;;;;;26.38;17.98;;;;;;;-140.79;100.00;63287.88;5083549;28;20028;-76
2020/12/23 02:21:02;;;;;;;27.25;19.13;;;;;;;-140.79;100.00;63287.88;5048109;28;20051;-77
2020/12/23 02:23:28;;;;;;;27.40;18.60;;;;;;;-140.79;100.00;63287.88;5083055;28;20036;-78
2020/12/23 02:25:53;;;;;;;29.33;18.98;;;;;;;-140.79;100.00;63287.88;5064626;28;20032;-76
2020/12/23 02:28:21;;;;;;;27.63;18.48;;;;;;;-140.79;100.00;63287.88;5083069;28;20034;-77
2020/12/23 02:30:47;;;;;;;27.85;19.27;;;;;;;-140.79;100.00;63287.88;5085158;28;20032;-76
2020/12/23 02:33:13;;;;;;;28.00;19.25;;;;;;;-140.79;100.00;63287.88;5064660;28;20504;-77
2020/12/23 02:35:38;;;;;;;28.63;18.65;;;;;;;-140.79;100.00;63287.88;5082585;28;20044;-77
2020/12/23 02:38:04;;;;;;;27.02;18.83;;;;;;;-140.79;100.00;63287.88;5082223;28;20036;-77
2020/12/23 02:40:29;;;;;;;26.92;19.30;;;;;;;-140.79;100.00;63287.88;5082510;28;20524;-78
2020/12/23 02:42:54;;;;;;;27.27;17.92;;;;;;;-140.79;100.00;63287.88;5082465;28;20031;-77
2020/12/23 02:45:20;;;;;;;28.13;18.80;;;;;;;-140.79;100.00;63287.88;5083201;28;20111;-75
2020/12/23 02:47:45;;;;;;;28.05;18.95;;;;;;;-140.79;100.00;63287.88;5080897;28;20058;-77
2020/12/23 02:50:11;;;;;;;28.83;19.08;;;;;;;-140.79;100.00;63287.88;5098998;28;20043;-75
2020/12/23 02:52:36;;;;;;;30.80;20.50;;;;;;;-140.79;100.00;63287.88;5097526;28;20069;-78
2020/12/23 02:55:01;;;;;;;29.52;19.90;;;;;;;-140.79;100.00;63287.88;5083545;28;21792;-75
2020/12/23 02:57:27;;;;;;;29.80;19.48;;;;;;;-140.79;100.00;63287.88;5083758;28;20020;-77
2020/12/23 02:59:52;;;;;;;27.15;18.77;;;;;;;-140.79;100.00;63287.88;5081309;28;20044;-75
2020/12/23 03:02:18;;;;;;;26.65;19.30;;;;;;;-140.79;100.00;63287.88;5083098;28;20032;-76
2020/12/23 03:04:43;;;;;;;27.30;19.73;;;;;;;-140.79;100.00;63287.88;5082267;28;20127;-77
2020/12/23 03:07:08;;;;;;;28.20;19.38;;;;;;;-140.79;100.00;63287.88;5082266;28;20036;-77
2020/12/23 03:09:34;;;;;;;30.13;19.63;;;;;;;-140.79;100.00;63287.88;5082182;28;20025;-77
2020/12/23 03:11:59;;;;;;;29.25;20.38;;;;;;;-140.79;100.00;63287.88;5082007;28;20036;-76
2020/12/23 03:14:25;;;;;;;30.83;19.05;;;;;;;-140.79;100.00;63287.88;5081700;28;20488;-75
2020/12/23 03:16:50;;;;;;;29.35;19.58;;;;;;;-140.79;100.00;63287.88;5082518;28;20028;-75
2020/12/23 03:19:15;;;;;;;29.13;19.70;;;;;;;-140.79;100.00;63287.88;5082202;28;20749;-75
2020/12/23 03:21:41;;;;;;;29.40;19.50;;;;;;;-140.79;100.00;63287.88;5063854;28;20036;-76
2020/12/23 03:24:06;;;;;;;29.42;19.15;;;;;;;-140.79;100.00;63287.88;5081773;28;20028;-75
2020/12/23 03:26:32;;;;;;;28.13;18.90;;;;;;;-140.79;100.00;63287.88;5063430;28;20044;-76
2020/12/23 03:28:57;;;;;;;29.17;20.00;;;;;;;-140.79;100.00;63287.88;5081389;28;20028;-75
2020/12/23 03:31:23;;;;;;;28.98;20.15;;;;;;;-140.79;100.00;63287.88;5063624;28;20035;-76
2020/12/23 03:33:48;;;;;;;28.55;19.48;;;;;;;-140.79;100.00;63287.88;5063563;28;20027;-73
2020/12/23 03:36:13;;;;;;;29.85;19.52;;;;;;;-140.79;100.00;63287.88;5079830;28;20035;-75
2020/12/23 03:38:39;;;;;;;31.77;20.38;;;;;;;-140.79;100.00;63287.88;5081569;28;20024;-76
2020/12/23 03:41:06;;;;;;;28.50;19.85;;;;;;;-140.79;100.00;63287.88;5082672;28;20020;-75
2020/12/23 03:43:31;;;;;;;30.08;19.95;;;;;;;-140.79;100.00;63287.88;5064463;28;20024;-74
2020/12/23 03:45:57;;;;;;;29.42;19.60;;;;;;;-140.79;100.00;63287.88;5082473;28;20722;-75
2020/12/23 03:48:22;;;;;;;28.67;19.42;;;;;;;-140.79;100.00;63287.88;5083348;28;20477;-76
2020/12/23 03:50:48;;;;;;;29.17;20.02;;;;;;;-140.79;100.00;63287.88;5055360;28;20036;-76
2020/12/23 03:53:14;;;;;;;29.05;19.98;;;;;;;-140.79;100.00;63287.88;5081523;28;20405;-78
2020/12/23 03:55:39;;;;;;;27.67;19.23;;;;;;;-140.79;100.00;63287.88;5081069;28;20051;-75
2020/12/23 03:58:05;;;;;;;29.08;19.75;;;;;;;-140.79;100.00;63287.88;5081018;28;20027;-76
2020/12/23 04:00:30;;;;;;;28.02;18.88;;;;;;;-140.79;100.00;63287.88;5081201;28;20028;-76
2020/12/23 04:02:56;;;;;;;28.52;19.40;;;;;;;-140.79;100.00;63287.88;5062587;28;20028;-78
2020/12/23 04:05:21;;;;;;;27.75;19.35;;;;;;;-140.79;100.00;63287.88;5080884;28;20070;-76
2020/12/23 04:07:46;;;;;;;26.70;18.67;;;;;;;-140.79;100.00;63287.88;5081246;28;20039;-76
2020/12/23 04:10:12;;;;;;;24.98;18.15;;;;;;;-140.79;100.00;63287.88;5063204;28;20028;-76
2020/12/23 04:12:38;;;;;;;26.77;18.75;;;;;;;-140.79;100.00;63287.88;5079163;28;20027;-78
2020/12/23 04:15:06;;;;;;;27.27;18.15;;;;;;;-140.79;100.00;63287.88;5080732;28;20039;-76
2020/12/23 04:17:32;;;;;;;27.77;18.83;;;;;;;-140.79;100.00;63287.88;5081852;28;20404;-77
2020/12/23 04:19:58;;;;;;;26.90;18.45;;;;;;;-140.79;100.00;63287.88;5081111;28;20056;-75
2020/12/23 04:22:23;;;;;;;26.73;18.77;;;;;;;-140.79;100.00;63287.88;5080903;28;20873;-77
2020/12/23 04:24:48;;;;;;;27.23;18.25;;;;;;;-140.79;100.00;63287.88;5062717;28;20040;-76
2020/12/23 04:27:14;;;;;;;28.25;18.67;;;;;;;-140.79;100.00;63287.88;5080483;28;20043;-76
2020/12/23 04:29:39;;;;;;;27.65;18.88;;;;;;;-140.79;100.00;63287.88;5062246;28;20016;-76
2020/12/23 04:32:05;;;;;;;27.13;18.50;;;;;;;-140.79;100.00;63287.88;5080772;28;20039;-77
2020/12/23 04:34:30;;;;;;;27.17;19.42;;;;;;;-140.79;100.00;63287.88;5062625;28;20020;-74
2020/12/23 04:36:55;;;;;;;27.45;18.17;;;;;;;-140.79;100.00;63287.88;5081866;28;20085;-73
2020/12/23 04:39:21;;;;;;;27.27;18.05;;;;;;;-140.79;100.00;63287.88;5084147;28;20090;-74
2020/12/23 04:41:46;;;;;;;27.27;19.02;;;;;;;-140.79;100.00;63287.88;5084653;28;20036;-77
2020/12/23 04:44:12;;;;;;;27.00;18.23;;;;;;;-140.79;100.00;63287.88;5066042;28;20024;-76
2020/12/23 04:46:41;;;;;;;27.05;18.98;;;;;;;-140.79;100.00;63287.88;5066968;28;20454;-75
2020/12/23 04:49:06;;;;;;;27.38;18.08;;;;;;;-140.79;100.00;63287.88;5085678;28;20065;-76
2020/12/23 04:51:33;;;;;;;26.45;18.77;;;;;;;-140.79;100.00;63287.88;5087309;28;20340;-76
2020/12/23 04:53:59;;;;;;;26.65;18.58;;;;;;;-140.79;100.00;63287.88;5085885;28;20044;-75
2020/12/23 04:56:29;;;;;;;26.85;18.48;;;;;;;-140.79;100.00;63287.88;5085079;28;20084;-75
2020/12/23 04:58:55;;;;;;;26.83;18.33;;;;;;;-140.79;100.00;63287.88;5084823;28;20024;-75
2020/12/23 05:01:20;;;;;;;25.45;17.58;;;;;;;-140.79;100.00;63287.88;5049646;28;20365;-77
2020/12/23 05:03:46;;;;;;;27.98;19.00;;;;;;;-140.79;100.00;63287.88;5085042;28;20036;-75
2020/12/23 05:06:12;;;;;;;25.60;18.23;;;;;;;-140.79;100.00;63287.88;5084288;28;20089;-78
2020/12/23 05:08:37;;;;;;;28.25;17.92;;;;;;;-140.79;100.00;63287.88;5083603;28;20511;-74
2020/12/23 05:11:09;;;;;;;25.42;18.65;;;;;;;-140.79;100.00;63287.88;5084534;28;20519;-75
2020/12/23 05:13:38;;;;;;;26.95;19.25;;;;;;;-140.79;100.00;63287.88;5049820;28;20028;-75
2020/12/23 05:16:08;;;;;;;26.20;18.33;;;;;;;-140.79;100.00;63287.88;5065959;28;20036;-75
2020/12/23 05:18:34;;;;;;;;;;;;;;;-140.79;100.00;63287.88;5067384;28;20012;-75
2020/12/23 05:21:00;;;;;;;25.42;18.05;;;;;;;-140.79;100.00;63287.88;5108567;28;20474;-76
2020/12/23 05:23:30;;;;;;;25.35;17.88;;;;;;;-140.79;100.00;63287.88;5101530;28;20024;-76
2020/12/23 05:26:02;;;;;;;27.00;18.80;;;;;;;-140.79;100.00;63287.88;5073767;28;20156;-77
2020/12/23 05:28:28;;;;;;;27.83;17.80;;;;;;;-140.79;100.00;63287.88;5084546;28;20293;-77
2020/12/23 05:30:53;;;;;;;26.67;18.58;;;;;;;-140.79;100.00;63287.88;5050167;28;20404;-77
2020/12/23 05:33:19;;;;;;;25.63;18.35;;;;;;;-140.79;100.00;63287.88;5084443;28;20489;-75
2020/12/23 05:35:44;;;;;;;27.40;19.17;;;;;;;-140.79;100.00;63287.88;5049724;28;20039;-76
2020/12/23 05:38:10;;;;;;;28.08;17.75;;;;;;;-140.79;100.00;63287.88;5081523;28;20031;-75
2020/12/23 05:40:35;;;;;;;26.95;18.02;;;;;;;-140.79;100.00;63287.88;5082829;28;20024;-76
2020/12/23 05:43:01;;;;;;;26.15;17.00;;;;;;;-140.79;100.00;63287.88;5065614;28;20385;-77
2020/12/23 05:45:27;;;;;;;26.33;18.23;;;;;;;-140.79;100.00;63287.88;5049182;28;20134;-76
2020/12/23 05:47:53;;;;;;;24.95;17.23;;;;;;;-140.79;100.00;63287.88;5084237;28;20032;-76
2020/12/23 05:50:18;;;;;;;25.85;18.23;;;;;;;-140.79;100.00;63287.88;5065844;28;20024;-76
2020/12/23 05:52:45;;;;;;;25.27;17.90;;;;;;;-140.79;100.00;63287.88;5083015;28;20085;-76
2020/12/23 05:55:15;;;;;;;26.55;18.05;;;;;;;-140.79;100.00;63287.88;5083429;28;20047;-77
2020/12/23 05:57:40;;;;;;;27.23;18.65;;;;;;;-140.79;100.00;63287.88;5082585;28;20062;-76
2020/12/23 06:00:06;;;;;;;27.65;18.55;;;;;;;-140.79;100.00;63287.88;5081846;28;20612;-76
2020/12/23 06:02:31;;;;;;;26.52;18.45;;;;;;;-140.79;100.00;63287.88;5058694;28;20036;-79
2020/12/23 06:04:57;;;;;;;25.83;17.88;;;;;;;-140.79;100.00;63287.88;5064816;28;20036;-76
2020/12/23 06:07:22;;;;;;;22.85;16.98;;;;;;;-140.79;100.00;63287.88;5064511;28;20032;-81
2020/12/23 06:09:48;;;;;;;25.23;18.27;;;;;;;-140.79;100.00;63287.88;5049686;28;20052;-79
2020/12/23 06:12:16;;;;;;;24.52;16.90;;;;;;;-140.79;100.00;63287.88;5067921;28;20024;-79
2020/12/23 06:14:56;;;;;;;24.55;16.50;;;;;;;-140.79;100.00;63287.88;4914938;28;20053;-79
2020/12/23 06:17:54;;;;;;;25.33;17.63;;;;;;;;;;5047488;27;20371;-78
2020/12/23 06:20:19;;;;;;;25.08;17.17;;;;;;;;;;5065862;28;20021;-76
2020/12/23 06:22:44;;;;;;;26.40;17.37;;;;;;;;;;5060277;28;20040;-75
2020/12/23 06:25:09;;;;;;;24.23;17.03;;;;;;;;;;5059203;28;20286;-75
2020/12/23 06:27:34;;;;;;;24.97;17.20;;;;;;;;;;5061775;28;20025;-75
2020/12/23 06:30:00;;;;;;;24.97;16.87;;;;;;;;;;5065069;28;20017;-79
2020/12/23 06:32:25;;;;;;;26.30;17.60;;;;;;;;;;5057651;28;20024;-77
2020/12/23 06:34:57;;;;;;;25.08;17.42;;;;;;;;;;5042341;28;20021;-78
2020/12/23 06:37:23;;;;;;;22.25;16.70;;;;;;;;;;5056234;28;20185;-75
2020/12/23 06:39:49;;;;;;;23.38;17.13;;;;;;;;;;5062707;28;20088;-78
2020/12/23 06:42:14;;;;;;;26.92;17.48;;;;;;;;;;5055108;28;20144;-74
2020/12/23 06:44:42;;;;;;;25.90;18.03;;;;;;;;;;5057904;28;20220;-73
2020/12/23 06:47:08;;;;;;;21.85;16.42;;;;;;;;;;5057493;28;20020;-72
2020/12/23 06:49:37;;;;;;;23.92;17.20;;;;;;;;;;5062469;28;20425;-77
2020/12/23 06:52:21;;;;;;;22.95;16.75;;;;;;;;;;5046129;28;20025;-74
2020/12/23 06:55:01;;;;;;;23.95;16.75;;;;;;;;;;5063920;28;20032;-78
2020/12/23 06:57:39;;;;;;;23.55;16.90;;;;;;;;;;5060393;28;20936;-75
2020/12/23 07:00:08;;;;;;;23.77;16.35;;;;;;;;;;5059942;28;20540;-78
2020/12/23 07:02:42;;;;;;;25.13;16.73;;;;;;;;;;5056730;28;20025;-82
2020/12/23 07:05:11;;;;;;;25.15;16.48;;;;;;;;;;5055771;28;20029;-78
2020/12/23 07:07:37;;;;;;;23.75;16.42;;;;;;;;;;5059879;28;21632;-77
2020/12/23 07:10:12;;;;;;;23.83;17.05;;;;;;;;;;5041792;28;20534;-77
2020/12/23 07:12:38;;;;;;;22.67;16.27;;;;;;;;;;5062547;28;20013;-75
2020/12/23 07:15:10;;;;;;;24.10;16.23;;;;;;;;;;5060949;28;20033;-80
2020/12/23 07:17:36;;;;;;;22.52;16.10;;;;;;;;;;5060126;28;20579;-77
2020/12/23 07:20:05;;;;;;;23.48;15.93;;;;;;;;;;5058303;28;20043;-74
2020/12/23 08:47:57;;;;;;;20.08;14.32;;;;;;;;;;5056638;28;21278;-72
2020/12/23 08:50:23;;;;;;;20.23;14.38;;;;;;;;;;5045847;28;20033;-73
2020/12/23 08:52:49;;;;;;;19.95;14.55;;;;;;;;;;5059226;28;20382;-72
2020/12/23 08:55:15;;;;;;;20.45;14.05;;;;;;;;;;5063776;28;20488;-72
2020/12/23 08:57:40;;;;;;;22.05;13.77;;;;;;;;;;5058817;28;20028;-78
2020/12/23 09:00:05;;;;;;;19.67;13.30;;;;;;;;;;5059632;28;20021;-77
2020/12/23 09:02:35;;;;;;;19.37;13.30;;;;;;;;;;5063202;28;20263;-72
2020/12/23 09:05:11;;;;;;;19.10;13.95;;;;;;;;;;5061607;28;20373;-72
2020/12/23 09:08:01;;;;;;;17.92;12.25;;;;;;;;;;5062735;28;20044;-75
2020/12/23 09:10:26;;;;;;;19.02;13.18;;;;;;;;;;5061122;28;20079;-75
2020/12/23 09:13:02;;;;;;;20.23;15.07;;;;;;;;;;5062268;28;20551;-75
2020/12/23 09:15:30;;;;;;;18.33;13.05;;;;;;;;;;5059004;28;20302;-75
2020/12/23 09:18:04;;;;;;;20.10;13.50;;;;;;;;;;5059299;28;20020;-74
2020/12/23 09:20:29;;;;;;;19.98;13.98;;;;;;;;;;5058363;28;20028;-75
2020/12/23 09:22:54;;;;;;;17.87;12.80;;;;;;;;;;5058414;28;20107;-74
2020/12/23 09:25:20;;;;;;;19.43;13.27;;;;;;;;;;5058744;28;20625;-73
2020/12/23 09:27:49;;;;;;;18.30;13.60;;;;;;;;;;5059213;28;20414;-73
2020/12/23 09:30:28;;;;;;;17.58;13.15;;;;;;;;;;5059775;28;20026;-73
2020/12/23 09:32:53;;;;;;;17.67;12.75;;;;;;;;;;5059134;28;20536;-73
2020/12/23 09:35:24;;;;;;;18.52;12.52;;;;;;;;;;5058048;28;20033;-73
2020/12/23 09:37:49;;;;;;;18.48;13.52;;;;;;;;;;5060360;28;20123;-75
2020/12/23 09:40:15;;;;;;;17.15;11.93;;;;;;;;;;5064026;28;20046;-74
2020/12/23 09:42:40;;;;;;;17.55;12.68;;;;;;;;;;5058415;28;20048;-73
2020/12/23 09:45:08;;;;;;;17.17;12.13;;;;;;;;;;5054927;28;20383;-72
2020/12/23 09:47:34;;;;;;;17.60;12.80;;;;;;;;;;5061722;28;20333;-73
2020/12/23 09:50:00;;;;;;;16.88;11.50;;;;;;;;;;5062353;28;20040;-80
2020/12/23 09:52:26;;;;;;;17.50;12.45;;;;;;;;;;5060302;28;20044;-80
2020/12/23 09:54:51;;;;;;;16.52;11.65;;;;;;;;;;5060886;28;20052;-79
2020/12/23 09:57:16;;;;;;;18.07;11.83;;;;;;;;;;5058035;28;20021;-79
2020/12/23 09:59:41;;;;;;;17.23;12.40;;;;;;;;;;5048735;28;20186;-77
2020/12/23 10:02:07;;;;;;;17.10;12.05;;;;;;;;;;5045945;28;20271;-77
2020/12/23 10:04:32;;;;;;;17.07;11.67;;;;;;;;;;5050921;28;20442;-80
2020/12/23 10:06:57;;;;;;;15.40;11.77;;;;;;;;;;5050010;28;20518;-80
2020/12/23 10:09:22;;;;;;;18.37;10.87;;;;;;;;;;5049811;28;20466;-78
2020/12/23 10:11:48;;;;;;;16.03;11.43;;;;;;;;;;5047070;28;23747;-80
2020/12/23 10:14:14;;;;;;;15.77;11.10;;;;;;;;;;5047364;28;20078;-80
2020/12/23 10:16:39;;;;;;;17.30;11.03;;;;;;;;;;5050887;28;20025;-79
2020/12/23 10:19:04;;;;;;;15.37;11.10;;;;;;;;;;5045994;28;20358;-80
2020/12/23 10:21:29;;;;;;;14.77;11.30;;;;;;;;;;5050623;28;20120;-80
2020/12/23 10:23:54;;;;;;;14.97;10.80;;;;;;;;;;5058551;28;20283;-84
2020/12/23 10:26:20;;;;;;;15.27;10.33;;;;;;;;;;5066593;28;20683;-79
2020/12/23 10:28:45;;;;;;;15.23;10.80;;;;;;;;;;5052711;28;20279;-81
2020/12/23 10:31:11;;;;;;;14.73;10.85;;;;;;;;;;5055207;28;20013;-79
2020/12/23 10:33:37;;;;;;;14.55;10.63;;;;;;;;;;5053256;28;20036;-79
2020/12/23 10:36:02;;;;;;;15.60;10.90;;;;;;;;;;5044688;28;20101;-81
2020/12/23 10:38:28;;;;;;;15.35;10.68;;;;;;;;;;5049775;28;20505;-80
2020/12/23 10:40:54;;;;;;;13.40;9.82;;;;;;;;;;5052594;28;20421;-79
2020/12/23 10:43:20;;;;;;;13.05;9.75;;;;;;;;;;5045610;28;20020;-78
2020/12/23 10:45:45;;;;;;;16.57;10.03;;;;;;;;;;5046883;28;20108;-77
2020/12/23 10:48:10;;;;;;;30.90;11.17;;;;;;;;;;5026978;28;20280;-86
2020/12/23 10:50:35;;;;;;;18.50;10.07;;;;;;;;;;5048415;28;20279;-87
2020/12/23 10:53:00;;;;;;;17.20;10.73;;;;;;;;;;5048593;28;20025;-86
2020/12/23 10:55:26;;;;;;;20.65;10.45;;;;;;;;;;5049626;28;20025;-87
2020/12/23 10:57:51;;;;;;;17.20;10.43;;;;;;;;;;5049306;28;20029;-86
2020/12/23 11:00:16;;;;;;;16.20;9.90;;;;;;;;;;5052564;28;20028;-86
2020/12/23 11:02:41;;;;;;;17.13;9.90;;;;;;;;;;5049756;28;20280;-86
2020/12/23 11:05:07;;;;;;;20.67;10.10;;;;;;;;;;5037593;28;22095;-84
2020/12/23 11:07:32;;;;;;;17.57;9.90;;;;;;;;;;5051186;28;20033;-77
2020/12/23 11:09:57;;;;;;;18.40;10.13;;;;;;;;;;5044988;28;20307;-80
2020/12/23 11:12:23;;;;;;;16.80;9.30;;;;;;;;;;5054435;28;20028;-82
2020/12/23 11:14:49;;;;;;;17.43;9.47;;;;;;;;;;5050105;28;20136;-83
2020/12/23 11:17:14;;;;;;;18.58;10.43;;;;;;;;;;5049047;28;20187;-82
2020/12/23 11:19:39;;;;;;;17.80;9.90;;;;;;;;;;5054934;28;20480;-83
2020/12/23 11:22:04;;;;;;;17.70;9.80;;;;;;;;;;5050559;28;20474;-81
2020/12/23 11:24:30;;;;;;;16.83;9.30;;;;;;;;;;5049509;28;20263;-84
2020/12/23 11:26:55;;;;;;;19.60;9.87;;;;;;;;;;5048055;28;20040;-83
2020/12/23 11:29:20;;;;;;;16.67;10.03;;;;;;;;;;5029140;28;20032;-83
2020/12/23 11:31:49;;;;;;;19.97;10.57;;;;;;;;;;5047112;28;20045;-84
2020/12/23 11:34:14;;;;;;;14.55;7.18;;;;;;;;;;5028202;28;20267;-80
2020/12/23 11:36:39;;;;;;;10.97;5.77;;;;;;;;;;5046658;28;20036;-79
2020/12/23 11:39:04;;;;;;;16.40;7.90;;;;;;;;;;5045083;28;20013;-79
2020/12/23 11:41:30;;;;;;;19.97;9.00;;;;;;;;;;5042221;28;20287;-80
2020/12/23 11:43:55;;;;;;;17.30;8.68;;;;;;;;;;5046647;28;20025;-83
2020/12/23 11:46:20;;;;;;;16.63;8.43;;;;;;;;;;5030423;28;20045;-80
2020/12/23 11:48:46;;;;;;;14.87;8.30;;;;;;;;;;5047459;28;20861;-79
2020/12/23 11:51:11;;;;;;;14.48;9.07;;;;;;;;;;5044734;28;20485;-78
2020/12/23 11:53:37;;;;;;;14.95;9.15;;;;;;;;;;5043994;28;20717;-78
2020/12/23 11:56:02;;;;;;;17.88;9.10;;;;;;;;;;5045273;28;20024;-79
2020/12/23 11:58:28;;;;;;;15.82;8.63;;;;;;;;;;5049343;28;20029;-80
2020/12/23 12:00:53;;;;;;;15.02;8.52;;;;;;;;;;5053076;28;20082;-77
2020/12/23 12:03:18;;;;;;;16.00;8.97;;;;;;;;;;5050212;28;20079;-80
2020/12/23 12:05:43;;;;;;;15.55;8.70;;;;;;;;;;5048417;28;20037;-79
2020/12/23 12:08:09;;;;;;;19.10;9.27;;;;;;;;;;5043861;28;20027;-82
2020/12/23 12:10:34;;;;;;;12.90;8.43;;;;;;;;;;5046841;28;20787;-78
2020/12/23 12:13:00;;;;;;;14.77;8.98;;;;;;;;;;5043550;28;20263;-77
2020/12/23 12:15:25;;;;;;;15.85;9.13;;;;;;;;;;4902020;28;22209;-75
2020/12/23 12:18:39;;;;;;;15.52;8.60;;;;;;;;;;4900413;28;20391;-79
2020/12/23 12:22:32;;;;;;;7.15;4.63;;;;;;;25.40;33.93;95397.44;4827403;28;93672;-82
2020/12/23 12:24:57;;;;;;;8.45;4.60;;;;;;;25.00;34.04;95403.06;4974425;28;20046;-79
2020/12/23 12:27:22;;;;;;;7.00;4.05;;;;;;;25.03;33.87;95402.78;5030237;28;20025;-78
2020/12/23 12:29:48;;;;;;;5.80;3.63;;;;;;;24.90;33.15;95394.44;4984575;28;20037;-81
2020/12/23 12:32:13;;;;;;;7.25;3.70;;;;;;;24.88;33.07;95391.44;5035681;28;20045;-83
2020/12/23 12:34:39;;;;;;;7.03;3.38;;;;;;;24.81;33.22;95382.34;5038795;28;20551;-80
2020/12/23 12:37:04;;;;;;;6.60;3.15;;;;;;;24.73;32.42;95389.63;5053413;28;20478;-82
2020/12/23 12:39:30;;;;;;;4.30;2.90;;;;;;;24.58;32.31;95400.16;5035684;28;20037;-80
2020/12/23 12:41:56;;;;;;;5.53;2.80;;;;;;;24.53;33.00;95392.75;5036931;28;20036;-78
2020/12/23 12:44:21;;;;;;;5.55;2.90;;;;;;;24.38;33.20;95392.34;5037581;28;20033;-79
2020/12/23 12:46:47;;;;;;;4.57;2.70;;;;;;;24.34;33.00;95391.88;5054376;28;20037;-81
2020/12/23 12:49:12;;;;;;;5.90;2.63;;;;;;;24.50;32.66;95393.75;4997021;28;20489;-79
2020/12/23 12:51:38;;;;;;;4.68;2.70;;;;;;;24.46;32.95;95393.28;5038485;28;20430;-77
2020/12/23 12:54:03;;;;;;;4.18;2.65;;;;;;;24.40;32.51;95406.22;5047881;28;20034;-78
2020/12/23 12:56:29;;;;;;;3.95;2.67;;;;;;;24.24;32.76;95409.75;5056647;28;20025;-77
2020/12/23 12:58:55;;;;;;;4.93;3.03;;;;;;;24.31;32.52;95409.25;5023679;28;20037;-78
2020/12/23 13:01:21;;;;;;;4.57;2.78;;;;;;;24.17;32.73;95415.00;5038624;28;20033;-79
2020/12/23 13:03:47;;;;;;;4.07;2.70;;;;;;;24.02;33.09;95412.63;5037560;28;20021;-78
2020/12/23 13:06:12;;;;;;;4.72;2.90;;;;;;;24.02;32.88;95401.72;5038908;28;20033;-79
2020/12/23 13:08:38;;;;;;;4.43;2.78;;;;;;;24.13;32.24;95409.84;5020560;28;20037;-76
2020/12/23 13:11:03;;;;;;;5.72;2.80;;;;;;;23.98;32.90;95395.78;5038185;28;20030;-78
2020/12/23 13:13:29;;;;;;;5.70;3.00;;;;;;;24.00;32.97;95406.91;5037409;28;20037;-77
2020/12/23 13:15:54;;;;;;;3.25;2.25;;;;;;;23.97;33.11;95402.47;5036525;28;20025;-80
2020/12/23 13:18:20;;;;;;;5.10;2.38;;;;;;;23.90;32.97;95403.00;5036525;28;20414;-77
2020/12/23 13:20:45;;;;;;;4.47;2.40;;;;;;;23.98;33.03;95403.97;5037348;28;20041;-79
2020/12/23 13:23:11;;;;;;;3.78;2.40;;;;;;;24.02;33.10;95404.44;5016886;28;20824;-79
2020/12/23 13:25:36;;;;;;;4.47;2.60;;;;;;;23.81;33.19;95415.44;5052979;28;20033;-78
2020/12/23 13:28:02;;;;;;;4.43;2.42;;;;;;;23.82;33.15;95408.75;5035809;28;20037;-77
2020/12/23 13:30:27;;;;;;;4.10;2.92;;;;;;;23.76;33.15;95405.31;5036545;28;20033;-77